createdAt,value
2019-05-03T00:00:58.902Z,0.10
2019-05-03T00:01:58.898Z,0.10
2019-05-03T00:02:58.882Z,0.10
2019-05-03T00:03:58.905Z,0.10
2019-05-03T00:04:58.859Z,0.10
2019-05-03T00:05:58.850Z,0.10
2019-05-03T00:06:58.837Z,0.10
2019-05-03T00:07:58.823Z,0.10
2019-05-03T00:08:58.815Z,0.10
2019-05-03T00:10:09.550Z,0.10
2019-05-03T00:10:58.794Z,0.10
2019-05-03T00:11:58.785Z,0.10
2019-05-03T00:12:58.770Z,0.10
2019-05-03T00:13:58.760Z,0.10
2019-05-03T00:14:58.787Z,0.10
2019-05-03T00:15:58.734Z,0.10
2019-05-03T00:16:58.724Z,0.10
2019-05-03T00:17:58.711Z,0.10
2019-05-03T00:19:00.936Z,0.10
2019-05-03T00:19:58.692Z,0.10
2019-05-03T00:20:58.713Z,0.10
2019-05-03T00:21:58.674Z,0.10
2019-05-03T00:22:58.663Z,0.10
2019-05-03T00:23:58.647Z,0.10
2019-05-03T00:25:06.023Z,0.00
2019-05-03T00:25:59.663Z,0.10
2019-05-03T00:26:58.621Z,0.10
2019-05-03T00:27:58.605Z,0.10
2019-05-03T00:28:58.595Z,0.10
2019-05-03T00:29:58.582Z,0.10
2019-05-03T00:30:58.571Z,0.10
2019-05-03T00:31:58.574Z,0.10
2019-05-03T00:32:58.550Z,0.20
2019-05-03T00:33:58.538Z,0.10
2019-05-03T00:34:58.528Z,0.10
2019-05-03T00:35:58.522Z,0.10
2019-05-03T00:36:58.554Z,0.10
2019-05-03T00:37:58.496Z,0.20
2019-05-03T00:38:58.486Z,0.10
2019-05-03T00:39:58.474Z,0.10
2019-05-03T00:41:08.725Z,0.10
2019-05-03T00:41:58.462Z,0.10
2019-05-03T00:42:58.458Z,0.10
2019-05-03T00:43:58.443Z,0.20
2019-05-03T00:44:58.427Z,0.20
2019-05-03T00:45:58.417Z,0.10
2019-05-03T00:46:58.398Z,0.20
2019-05-03T00:47:58.390Z,0.10
2019-05-03T00:48:58.387Z,0.10
2019-05-03T00:49:58.372Z,0.10
2019-05-03T00:50:58.354Z,0.10
2019-05-03T00:51:58.351Z,0.10
2019-05-03T00:52:58.341Z,0.20
2019-05-03T00:53:58.359Z,0.10
2019-05-03T00:54:58.317Z,0.10
2019-05-03T00:55:58.307Z,0.10
2019-05-03T00:56:58.288Z,0.10
2019-05-03T00:57:58.281Z,0.10
2019-05-03T00:58:58.273Z,0.10
2019-05-03T00:59:58.271Z,0.20
2019-05-03T01:00:58.285Z,0.10
2019-05-03T01:01:58.232Z,0.10
2019-05-03T01:02:58.226Z,0.10
2019-05-03T01:03:58.213Z,0.10
2019-05-03T01:04:58.201Z,0.10
2019-05-03T01:05:58.188Z,0.10
2019-05-03T01:06:58.221Z,0.10
2019-05-03T01:07:58.176Z,0.20
2019-05-03T01:08:58.162Z,0.10
2019-05-03T01:09:58.148Z,0.10
2019-05-03T01:10:58.138Z,0.10
2019-05-03T01:12:08.661Z,0.10
2019-05-03T01:12:58.114Z,0.10
2019-05-03T01:13:58.102Z,0.10
2019-05-03T01:14:58.086Z,0.10
2019-05-03T01:15:58.078Z,0.10
2019-05-03T01:16:58.065Z,0.20
2019-05-03T01:17:58.080Z,0.10
2019-05-03T01:18:58.048Z,0.10
2019-05-03T01:19:58.030Z,0.20
2019-05-03T01:20:58.026Z,0.10
2019-05-03T01:21:58.014Z,0.10
2019-05-03T01:22:58.625Z,0.20
2019-05-03T01:23:57.997Z,0.10
2019-05-03T01:24:57.984Z,0.10
2019-05-03T01:25:57.968Z,0.10
2019-05-03T01:26:57.957Z,0.10
2019-05-03T01:27:57.960Z,0.20
2019-05-03T01:28:57.933Z,0.10
2019-05-03T01:29:57.929Z,0.10
2019-05-03T01:30:57.916Z,0.10
2019-05-03T01:31:57.904Z,0.10
2019-05-03T01:32:57.888Z,0.10
2019-05-03T01:33:57.888Z,0.10
2019-05-03T01:34:57.870Z,0.20
2019-05-03T01:35:57.854Z,0.10
2019-05-03T01:36:57.850Z,0.20
2019-05-03T01:37:57.831Z,0.10
2019-05-03T01:38:57.834Z,0.10
2019-05-03T01:39:57.843Z,0.10
2019-05-03T01:40:57.810Z,0.10
2019-05-03T01:41:57.787Z,0.10
2019-05-03T01:43:08.150Z,0.10
2019-05-03T01:43:57.767Z,0.20
2019-05-03T01:44:57.760Z,0.20
2019-05-03T01:45:57.789Z,0.10
2019-05-03T01:46:57.740Z,0.10
2019-05-03T01:47:57.727Z,0.20
2019-05-03T01:48:57.714Z,0.20
2019-05-03T01:49:57.708Z,0.10
2019-05-03T01:50:57.718Z,0.20
2019-05-03T01:51:57.722Z,0.10
2019-05-03T01:52:57.679Z,0.20
2019-05-03T01:53:57.664Z,0.10
2019-05-03T01:54:57.653Z,0.10
2019-05-03T01:55:57.639Z,0.20
2019-05-03T01:56:59.175Z,0.10
2019-05-03T01:57:57.651Z,0.20
2019-05-03T01:58:57.606Z,0.10
2019-05-03T01:59:57.594Z,0.20
2019-05-03T02:00:57.583Z,0.20
2019-05-03T02:01:57.578Z,0.10
2019-05-03T02:02:57.559Z,0.10
2019-05-03T02:03:57.587Z,0.10
2019-05-03T02:04:57.539Z,0.20
2019-05-03T02:05:57.528Z,0.20
2019-05-03T02:06:57.523Z,0.20
2019-05-03T02:07:57.507Z,0.20
2019-05-03T02:08:57.502Z,0.10
2019-05-03T02:09:57.521Z,0.20
2019-05-03T02:10:57.472Z,0.10
2019-05-03T02:11:57.462Z,0.10
2019-05-03T02:12:57.451Z,0.10
2019-05-03T02:14:08.005Z,0.10
2019-05-03T02:14:57.430Z,0.20
2019-05-03T02:15:57.428Z,0.20
2019-05-03T02:16:57.409Z,0.10
2019-05-03T02:17:57.401Z,0.10
2019-05-03T02:18:57.393Z,0.30
2019-05-03T02:19:57.372Z,0.20
2019-05-03T02:20:57.379Z,0.10
2019-05-03T02:21:57.358Z,0.10
2019-05-03T02:22:57.348Z,0.10
2019-05-03T02:23:57.330Z,0.20
2019-05-03T02:24:57.320Z,0.20
2019-05-03T02:25:59.225Z,0.10
2019-05-03T02:26:57.336Z,0.10
2019-05-03T02:27:57.287Z,0.20
2019-05-03T02:28:57.274Z,0.10
2019-05-03T02:29:57.270Z,0.20
2019-05-03T02:30:57.253Z,0.10
2019-05-03T02:31:57.245Z,0.20
2019-05-03T02:32:57.278Z,0.20
2019-05-03T02:33:57.242Z,0.20
2019-05-03T02:34:57.223Z,0.10
2019-05-03T02:35:57.200Z,0.10
2019-05-03T02:36:57.193Z,0.10
2019-05-03T02:37:57.183Z,0.20
2019-05-03T02:38:57.207Z,0.20
2019-05-03T02:39:57.157Z,0.10
2019-05-03T02:40:57.152Z,0.20
2019-05-03T02:42:02.979Z,0.10
2019-05-03T02:42:58.121Z,0.40
2019-05-03T02:43:57.131Z,0.10
2019-05-03T02:45:08.289Z,0.10
2019-05-03T02:45:57.091Z,0.10
2019-05-03T02:46:57.087Z,0.10
2019-05-03T02:47:57.071Z,0.20
2019-05-03T02:48:57.070Z,0.10
2019-05-03T02:49:57.051Z,0.20
2019-05-03T02:50:57.080Z,0.20
2019-05-03T02:51:57.062Z,0.10
2019-05-03T02:52:57.015Z,0.10
2019-05-03T02:53:57.427Z,0.10
2019-05-03T02:54:57.003Z,0.20
2019-05-03T02:56:12.980Z,0.20
2019-05-03T02:56:57.996Z,0.20
2019-05-03T02:57:56.967Z,0.10
2019-05-03T02:58:56.957Z,0.20
2019-05-03T02:59:56.944Z,0.30
2019-05-03T03:00:56.942Z,0.20
2019-05-03T03:01:56.928Z,0.10
2019-05-03T03:02:56.950Z,0.20
2019-05-03T03:03:56.908Z,0.20
2019-05-03T03:04:56.902Z,0.20
2019-05-03T03:05:56.886Z,0.20
2019-05-03T03:06:56.863Z,0.30
2019-05-03T03:07:56.873Z,0.40
2019-05-03T03:08:56.871Z,0.30
2019-05-03T03:09:56.869Z,0.30
2019-05-03T03:10:56.828Z,0.30
2019-05-03T03:11:56.842Z,1.30
2019-05-03T03:12:56.811Z,11.70
2019-05-03T03:13:56.786Z,12.00
2019-05-03T03:14:56.830Z,7.20
2019-05-03T03:16:07.100Z,3.00
2019-05-03T03:16:56.755Z,4.70
2019-05-03T03:17:56.748Z,6.20
2019-05-03T03:18:56.735Z,1.40
2019-05-03T03:19:56.720Z,3.30
2019-05-03T03:20:56.718Z,1.20
2019-05-03T03:21:56.698Z,3.50
2019-05-03T03:22:56.690Z,0.90
2019-05-03T03:23:56.692Z,4.40
2019-05-03T03:24:56.707Z,2.20
2019-05-03T03:25:56.655Z,1.20
2019-05-03T03:26:56.669Z,2.50
2019-05-03T03:27:56.636Z,0.90
2019-05-03T03:28:56.682Z,5.00
2019-05-03T03:29:56.610Z,0.40
2019-05-03T03:30:57.747Z,0.40
2019-05-03T03:31:58.156Z,1.00
2019-05-03T03:32:57.766Z,2.20
2019-05-03T03:33:59.155Z,2.70
2019-05-03T03:35:02.653Z,0.40
2019-05-03T03:36:07.191Z,1.80
2019-05-03T03:37:04.235Z,0.40
2019-05-03T03:37:57.527Z,1.10
2019-05-03T03:38:56.520Z,0.30
2019-05-03T03:39:56.506Z,0.30
2019-05-03T03:40:58.783Z,0.30
2019-05-03T03:41:56.484Z,0.60
2019-05-03T03:42:56.467Z,0.30
2019-05-03T03:43:56.455Z,0.80
2019-05-03T03:44:56.470Z,0.30
2019-05-03T03:45:56.433Z,0.20
2019-05-03T03:47:08.870Z,0.60
2019-05-03T03:47:56.736Z,1.20
2019-05-03T03:48:56.407Z,1.20
2019-05-03T03:49:56.391Z,1.10
2019-05-03T03:50:56.379Z,0.70
2019-05-03T03:51:56.536Z,0.40
2019-05-03T03:52:56.402Z,1.20
2019-05-03T03:53:56.347Z,0.30
2019-05-03T03:54:56.341Z,1.70
2019-05-03T03:55:56.608Z,0.30
2019-05-03T03:57:03.928Z,0.90
2019-05-03T03:57:57.319Z,0.20
2019-05-03T03:58:56.338Z,2.00
2019-05-03T03:59:56.573Z,0.70
2019-05-03T04:00:56.272Z,0.40
2019-05-03T04:01:56.263Z,0.20
2019-05-03T04:02:56.254Z,0.20
2019-05-03T04:03:56.314Z,0.20
2019-05-03T04:04:56.442Z,0.20
2019-05-03T04:05:56.226Z,1.20
2019-05-03T04:07:01.041Z,0.30
2019-05-03T04:07:57.208Z,0.90
2019-05-03T04:08:56.266Z,0.30
2019-05-03T04:09:56.402Z,0.90
2019-05-03T04:10:56.202Z,0.60
2019-05-03T04:11:56.994Z,0.20
2019-05-03T04:12:56.234Z,0.90
2019-05-03T04:13:56.134Z,0.40
2019-05-03T04:14:56.401Z,0.20
2019-05-03T04:15:56.338Z,0.30
2019-05-03T04:16:56.346Z,0.20
2019-05-03T04:18:07.157Z,0.10
2019-05-03T04:18:56.084Z,0.40
2019-05-03T04:19:56.093Z,0.20
2019-05-03T04:20:56.103Z,0.20
2019-05-03T04:21:56.241Z,1.00
2019-05-03T04:22:56.292Z,0.50
2019-05-03T04:23:56.026Z,0.20
2019-05-03T04:24:56.020Z,0.20
2019-05-03T04:25:56.785Z,0.20
2019-05-03T04:27:01.019Z,0.30
2019-05-03T04:27:57.001Z,0.20
2019-05-03T04:28:56.253Z,0.20
2019-05-03T04:29:55.958Z,0.20
2019-05-03T04:30:55.956Z,0.20
2019-05-03T04:31:56.598Z,0.20
2019-05-03T04:32:56.565Z,0.20
2019-05-03T04:33:56.348Z,0.20
2019-05-03T04:34:56.153Z,0.30
2019-05-03T04:35:55.893Z,0.10
2019-05-03T04:36:55.884Z,0.10
2019-05-03T04:37:56.210Z,0.60
2019-05-03T04:38:56.265Z,0.10
2019-05-03T04:39:56.199Z,0.10
2019-05-03T04:40:56.350Z,0.10
2019-05-03T04:41:56.003Z,0.10
2019-05-03T04:42:56.027Z,0.20
2019-05-03T04:43:55.805Z,0.10
2019-05-03T04:44:56.416Z,0.10
2019-05-03T04:45:55.910Z,0.10
2019-05-03T04:46:58.277Z,0.10
2019-05-03T04:47:56.366Z,0.10
2019-05-03T04:49:05.945Z,0.10
2019-05-03T04:49:55.759Z,0.20
2019-05-03T04:50:55.770Z,0.00
2019-05-03T04:51:56.100Z,0.10
2019-05-03T04:52:56.676Z,0.10
2019-05-03T04:53:55.825Z,0.40
2019-05-03T04:54:56.527Z,0.70
2019-05-03T04:55:56.004Z,0.10
2019-05-03T04:56:56.270Z,0.10
2019-05-03T04:57:56.216Z,0.10
2019-05-03T04:58:55.985Z,0.10
2019-05-03T04:59:56.156Z,0.20
2019-05-03T05:00:55.625Z,0.10
2019-05-03T05:01:56.114Z,0.00
2019-05-03T05:02:55.650Z,0.10
2019-05-03T05:03:55.951Z,0.00
2019-05-03T05:04:55.886Z,0.00
2019-05-03T05:05:59.323Z,0.10
2019-05-03T05:06:55.626Z,0.00
2019-05-03T05:07:55.944Z,0.80
2019-05-03T05:08:55.543Z,2.30
2019-05-03T05:09:56.332Z,0.80
2019-05-03T05:10:56.046Z,4.10
2019-05-03T05:11:55.506Z,3.40
2019-05-03T05:12:55.499Z,4.60
2019-05-03T05:13:56.001Z,2.50
2019-05-03T05:14:56.346Z,3.50
2019-05-03T05:15:55.463Z,5.40
2019-05-03T05:16:55.752Z,2.10
2019-05-03T05:17:56.275Z,9.20
2019-05-03T05:18:55.992Z,3.40
2019-05-03T05:20:05.565Z,2.70
2019-05-03T05:20:55.602Z,2.70
2019-05-03T05:21:55.401Z,4.90
2019-05-03T05:22:55.385Z,7.50
2019-05-03T05:23:55.377Z,5.20
2019-05-03T05:24:55.410Z,8.50
2019-05-03T05:25:55.353Z,8.10
2019-05-03T05:26:55.395Z,3.20
2019-05-03T05:27:57.148Z,4.80
2019-05-03T05:28:55.319Z,2.30
2019-05-03T05:29:55.509Z,1.70
2019-05-03T05:30:55.337Z,3.70
2019-05-03T05:31:55.289Z,2.10
2019-05-03T05:32:55.380Z,2.90
2019-05-03T05:33:55.270Z,7.10
2019-05-03T05:34:55.258Z,4.10
2019-05-03T05:35:55.246Z,6.90
2019-05-03T05:36:55.445Z,5.10
2019-05-03T05:37:55.222Z,2.80
2019-05-03T05:38:55.285Z,3.90
2019-05-03T05:39:55.198Z,3.60
2019-05-03T05:40:55.600Z,2.50
2019-05-03T05:41:55.487Z,4.70
2019-05-03T05:42:55.175Z,6.40
2019-05-03T05:43:55.158Z,2.80
2019-05-03T05:44:55.746Z,3.20
2019-05-03T05:45:56.291Z,2.00
2019-05-03T05:46:55.157Z,2.30
2019-05-03T05:47:55.115Z,5.50
2019-05-03T05:48:55.474Z,2.00
2019-05-03T05:49:55.100Z,9.00
2019-05-03T05:51:05.447Z,5.70
2019-05-03T05:51:55.065Z,4.50
2019-05-03T05:52:55.256Z,2.10
2019-05-03T05:53:55.048Z,3.50
2019-05-03T05:54:55.363Z,1.90
2019-05-03T05:55:55.070Z,1.20
2019-05-03T05:56:55.020Z,3.20
2019-05-03T05:58:02.970Z,6.50
2019-05-03T05:58:56.029Z,2.20
2019-05-03T05:59:54.987Z,3.90
2019-05-03T06:00:55.233Z,5.50
2019-05-03T06:01:55.546Z,2.80
2019-05-03T06:02:55.228Z,10.60
2019-05-03T06:03:55.115Z,3.40
2019-05-03T06:04:54.964Z,7.40
2019-05-03T06:05:54.960Z,8.10
2019-05-03T06:06:55.336Z,5.20
2019-05-03T06:07:54.897Z,6.30
2019-05-03T06:08:54.881Z,4.70
2019-05-03T06:09:55.032Z,3.60
2019-05-03T06:10:55.344Z,5.30
2019-05-03T06:11:55.383Z,2.50
2019-05-03T06:12:54.837Z,13.00
2019-05-03T06:13:54.829Z,4.40
2019-05-03T06:14:54.820Z,2.70
2019-05-03T06:15:54.918Z,8.60
2019-05-03T06:16:55.379Z,9.80
2019-05-03T06:17:55.489Z,2.90
2019-05-03T06:18:54.782Z,5.00
2019-05-03T06:19:55.061Z,2.80
2019-05-03T06:20:54.773Z,4.80
2019-05-03T06:22:05.213Z,7.70
2019-05-03T06:22:54.971Z,3.90
2019-05-03T06:23:56.335Z,4.50
2019-05-03T06:24:54.710Z,3.30
2019-05-03T06:25:54.694Z,4.10
2019-05-03T06:26:54.726Z,5.90
2019-05-03T06:27:54.970Z,3.50
2019-05-03T06:28:54.663Z,5.10
2019-05-03T06:29:54.651Z,4.80
2019-05-03T06:30:54.646Z,3.60
2019-05-03T06:31:55.087Z,6.40
2019-05-03T06:32:55.142Z,4.40
2019-05-03T06:33:55.368Z,6.50
2019-05-03T06:34:54.688Z,4.30
2019-05-03T06:35:54.732Z,5.10
2019-05-03T06:36:55.296Z,3.00
2019-05-03T06:37:54.669Z,1.40
2019-05-03T06:38:54.794Z,2.10
2019-05-03T06:39:54.540Z,0.30
2019-05-03T06:40:54.537Z,2.60
2019-05-03T06:41:55.089Z,1.10
2019-05-03T06:43:02.888Z,1.20
2019-05-03T06:43:55.536Z,0.70
2019-05-03T06:44:54.725Z,0.20
2019-05-03T06:45:54.907Z,2.10
2019-05-03T06:46:55.250Z,1.40
2019-05-03T06:47:55.102Z,1.30
2019-05-03T06:48:54.441Z,2.60
2019-05-03T06:49:55.239Z,1.10
2019-05-03T06:50:55.802Z,0.70
2019-05-03T06:51:54.713Z,0.30
2019-05-03T06:53:10.315Z,0.70
2019-05-03T06:53:55.385Z,0.50
2019-05-03T06:54:55.335Z,0.00
2019-05-03T06:55:55.395Z,0.10
2019-05-03T06:56:55.500Z,0.10
2019-05-03T06:57:54.689Z,0.10
2019-05-03T06:58:55.180Z,0.10
2019-05-03T06:59:55.001Z,0.80
2019-05-03T07:00:55.351Z,0.50
2019-05-03T07:01:55.227Z,0.30
2019-05-03T07:02:54.655Z,0.50
2019-05-03T07:03:54.866Z,0.00
2019-05-03T07:04:56.108Z,0.40
2019-05-03T07:05:54.926Z,4.50
2019-05-03T07:06:55.150Z,1.10
2019-05-03T07:07:54.719Z,0.10
2019-05-03T07:08:54.931Z,0.40
2019-05-03T07:09:54.660Z,1.70
2019-05-03T07:10:54.976Z,4.50
2019-05-03T07:11:55.526Z,1.90
2019-05-03T07:12:54.740Z,0.90
2019-05-03T07:13:55.022Z,0.50
2019-05-03T07:14:54.845Z,0.10
2019-05-03T07:15:56.022Z,0.90
2019-05-03T07:16:55.407Z,0.10
2019-05-03T07:17:55.690Z,1.70
2019-05-03T07:18:56.609Z,0.20
2019-05-03T07:19:54.694Z,0.40
2019-05-03T07:20:56.467Z,0.60
2019-05-03T07:21:54.597Z,0.60
2019-05-03T07:22:55.749Z,0.80
2019-05-03T07:24:06.636Z,0.50
2019-05-03T07:24:54.648Z,0.70
2019-05-03T07:25:55.157Z,1.80
2019-05-03T07:26:55.090Z,0.60
2019-05-03T07:27:55.625Z,0.50
2019-05-03T07:28:54.560Z,2.70
2019-05-03T07:29:55.607Z,2.40
2019-05-03T07:30:54.429Z,3.70
2019-05-03T07:31:54.888Z,1.40
2019-05-03T07:32:54.547Z,9.90
2019-05-03T07:33:55.075Z,2.20
2019-05-03T07:34:55.594Z,0.70
2019-05-03T07:35:54.761Z,0.10
2019-05-03T07:36:55.528Z,7.60
2019-05-03T07:37:55.341Z,1.10
2019-05-03T07:38:55.523Z,3.60
2019-05-03T07:39:55.583Z,6.40
2019-05-03T07:40:54.932Z,1.20
2019-05-03T07:41:55.067Z,1.50
2019-05-03T07:42:55.503Z,0.40
2019-05-03T07:43:55.011Z,3.00
2019-05-03T07:44:55.811Z,0.20
2019-05-03T07:45:55.247Z,0.90
2019-05-03T07:46:55.453Z,1.20
2019-05-03T07:47:55.871Z,1.30
2019-05-03T07:48:54.819Z,2.60
2019-05-03T07:49:54.681Z,1.30
2019-05-03T07:50:54.654Z,1.50
2019-05-03T07:51:55.347Z,3.10
2019-05-03T07:52:55.543Z,1.70
2019-05-03T07:53:55.620Z,1.10
2019-05-03T07:55:04.656Z,1.00
2019-05-03T07:55:54.750Z,2.80
2019-05-03T07:56:54.900Z,2.80
2019-05-03T07:57:55.394Z,0.10
2019-05-03T07:59:02.823Z,3.50
2019-05-03T07:59:55.645Z,0.10
2019-05-03T08:01:05.554Z,0.70
2019-05-03T08:01:54.732Z,2.30
2019-05-03T08:02:54.991Z,0.10
2019-05-03T08:03:55.132Z,0.60
2019-05-03T08:04:54.885Z,1.20
2019-05-03T08:05:55.336Z,0.60
2019-05-03T08:06:54.935Z,0.90
2019-05-03T08:07:55.388Z,1.30
2019-05-03T08:08:54.518Z,0.20
2019-05-03T08:09:55.374Z,0.10
2019-05-03T08:10:55.006Z,0.30
2019-05-03T08:11:54.739Z,0.10
2019-05-03T08:12:54.444Z,0.10
2019-05-03T08:13:54.975Z,0.10
2019-05-03T08:14:55.216Z,1.30
2019-05-03T08:15:55.662Z,0.70
2019-05-03T08:16:54.798Z,1.10
2019-05-03T08:17:55.321Z,2.30
2019-05-03T08:18:55.618Z,0.70
2019-05-03T08:19:55.223Z,0.20
2019-05-03T08:20:55.413Z,2.70
2019-05-03T08:21:56.462Z,1.10
2019-05-03T08:22:54.723Z,2.80
2019-05-03T08:23:55.486Z,0.80
2019-05-03T08:24:55.512Z,2.40
2019-05-03T08:26:05.863Z,4.10
2019-05-03T08:26:55.564Z,4.00
2019-05-03T08:27:54.919Z,3.70
2019-05-03T08:28:54.503Z,2.80
2019-05-03T08:29:55.543Z,1.80
2019-05-03T08:30:54.362Z,1.10
2019-05-03T08:31:54.584Z,0.80
2019-05-03T08:32:54.894Z,1.50
2019-05-03T08:33:55.228Z,1.50
2019-05-03T08:34:55.469Z,0.70
2019-05-03T08:35:55.315Z,4.30
2019-05-03T08:36:54.839Z,0.50
2019-05-03T08:37:54.731Z,2.20
2019-05-03T08:38:53.223Z,1.80
2019-05-03T08:39:55.174Z,1.40
2019-05-03T08:40:54.782Z,1.20
2019-05-03T08:41:55.372Z,1.90
2019-05-03T08:42:54.995Z,1.40
2019-05-03T08:43:54.989Z,4.20
2019-05-03T08:44:55.273Z,4.00
2019-05-03T08:45:55.244Z,2.40
2019-05-03T08:46:56.256Z,1.20
2019-05-03T08:47:55.244Z,1.90
2019-05-03T08:48:54.852Z,0.20
2019-05-03T08:49:55.243Z,1.30
2019-05-03T08:50:55.290Z,1.00
2019-05-03T08:51:54.967Z,0.20
2019-05-03T08:52:55.527Z,2.40
2019-05-03T08:53:53.051Z,2.10
2019-05-03T08:54:54.830Z,2.00
2019-05-03T08:55:55.179Z,2.90
2019-05-03T08:57:03.299Z,0.10
2019-05-03T08:57:55.167Z,1.60
2019-05-03T08:58:52.996Z,0.20
2019-05-03T08:59:54.783Z,0.70
2019-05-03T09:00:54.714Z,2.30
2019-05-03T09:01:54.970Z,0.80
2019-05-03T09:02:54.805Z,0.60
2019-05-03T09:03:52.935Z,1.40
2019-05-03T09:04:54.700Z,0.20
2019-05-03T09:05:56.225Z,1.10
2019-05-03T09:06:54.867Z,0.70
2019-05-03T09:07:54.753Z,1.00
2019-05-03T09:08:56.907Z,1.70
2019-05-03T09:09:54.865Z,1.00
2019-05-03T09:10:54.551Z,0.40
2019-05-03T09:11:52.847Z,0.10
2019-05-03T09:12:52.837Z,0.70
2019-05-03T09:13:53.054Z,0.20
2019-05-03T09:14:54.679Z,0.10
2019-05-03T09:15:55.081Z,0.10
2019-05-03T09:16:52.793Z,0.10
2019-05-03T09:17:52.779Z,0.30
2019-05-03T09:18:55.013Z,0.20
2019-05-03T09:19:54.723Z,0.80
2019-05-03T09:20:52.750Z,0.20
2019-05-03T09:21:54.761Z,0.80
2019-05-03T09:22:54.661Z,1.00
2019-05-03T09:23:52.713Z,1.10
2019-05-03T09:24:54.383Z,0.40
2019-05-03T09:25:54.622Z,0.50
2019-05-03T09:26:52.681Z,0.60
2019-05-03T09:28:04.687Z,0.20
2019-05-03T09:28:52.661Z,0.90
2019-05-03T09:29:52.759Z,1.40
2019-05-03T09:30:52.633Z,0.40
2019-05-03T09:31:52.628Z,0.20
2019-05-03T09:32:52.612Z,1.40
2019-05-03T09:33:54.566Z,1.40
2019-05-03T09:34:52.591Z,0.20
2019-05-03T09:35:54.818Z,2.60
2019-05-03T09:36:52.569Z,1.20
2019-05-03T09:37:52.556Z,1.10
2019-05-03T09:38:54.698Z,0.40
2019-05-03T09:39:52.540Z,1.30
2019-05-03T09:40:54.438Z,1.00
2019-05-03T09:41:52.522Z,1.00
2019-05-03T09:42:52.499Z,1.70
2019-05-03T09:43:52.490Z,2.40
2019-05-03T09:44:52.665Z,4.20
2019-05-03T09:45:54.613Z,3.70
2019-05-03T09:46:52.499Z,4.00
2019-05-03T09:47:52.449Z,5.60
2019-05-03T09:48:52.431Z,1.70
2019-05-03T09:49:52.422Z,2.90
2019-05-03T09:50:52.411Z,2.70
2019-05-03T09:51:54.636Z,1.30
2019-05-03T09:52:55.251Z,2.30
2019-05-03T09:53:52.401Z,2.30
2019-05-03T09:54:54.657Z,2.20
2019-05-03T09:55:52.354Z,0.30
2019-05-03T09:56:57.587Z,3.80
2019-05-03T09:57:55.422Z,3.50
2019-05-03T09:59:05.389Z,1.90
2019-05-03T09:59:58.963Z,0.80
2019-05-03T10:00:55.454Z,0.90
2019-05-03T10:01:52.296Z,4.00
2019-05-03T10:02:54.682Z,1.00
2019-05-03T10:03:52.304Z,2.00
2019-05-03T10:04:52.257Z,2.90
2019-05-03T10:05:52.245Z,0.20
2019-05-03T10:06:52.236Z,2.00
2019-05-03T10:07:52.223Z,1.30
2019-05-03T10:08:52.209Z,0.80
2019-05-03T10:09:52.243Z,2.60
2019-05-03T10:10:52.199Z,0.50
2019-05-03T10:11:52.185Z,1.70
2019-05-03T10:12:52.165Z,0.80
2019-05-03T10:13:52.241Z,0.60
2019-05-03T10:14:52.143Z,0.70
2019-05-03T10:15:52.172Z,0.30
2019-05-03T10:16:52.120Z,0.30
2019-05-03T10:17:52.112Z,0.20
2019-05-03T10:18:52.100Z,0.20
2019-05-03T10:19:52.103Z,1.30
2019-05-03T10:20:52.075Z,0.30
2019-05-03T10:21:52.124Z,0.60
2019-05-03T10:22:52.057Z,0.30
2019-05-03T10:23:52.068Z,0.70
2019-05-03T10:24:52.042Z,0.90
2019-05-03T10:25:52.023Z,0.40
2019-05-03T10:26:52.056Z,0.50
2019-05-03T10:27:52.010Z,0.20
2019-05-03T10:28:51.992Z,0.20
2019-05-03T10:30:12.290Z,1.40
2019-05-03T10:30:54.735Z,0.30
2019-05-03T10:31:51.967Z,2.50
2019-05-03T10:32:51.987Z,0.50
2019-05-03T10:33:51.934Z,0.20
2019-05-03T10:34:51.920Z,0.90
2019-05-03T10:35:51.920Z,0.30
2019-05-03T10:36:51.902Z,3.00
2019-05-03T10:37:51.890Z,0.60
2019-05-03T10:38:51.913Z,3.00
2019-05-03T10:39:51.873Z,1.00
2019-05-03T10:40:51.867Z,1.50
2019-05-03T10:41:51.847Z,0.90
2019-05-03T10:42:51.836Z,0.30
2019-05-03T10:43:51.824Z,1.20
2019-05-03T10:44:51.838Z,0.60
2019-05-03T10:45:51.804Z,0.90
2019-05-03T10:46:51.825Z,1.40
2019-05-03T10:47:51.779Z,0.60
2019-05-03T10:48:51.821Z,0.40
2019-05-03T10:49:51.764Z,1.20
2019-05-03T10:50:51.754Z,0.60
2019-05-03T10:51:51.732Z,1.10
2019-05-03T10:52:51.720Z,1.00
2019-05-03T10:53:51.718Z,0.70
2019-05-03T10:54:51.704Z,2.50
2019-05-03T10:55:51.740Z,1.40
2019-05-03T10:56:51.679Z,0.80
2019-05-03T10:57:51.665Z,1.00
2019-05-03T10:58:51.662Z,0.50
2019-05-03T10:59:51.750Z,0.30
2019-05-03T11:01:05.100Z,0.30
2019-05-03T11:01:51.624Z,1.40
2019-05-03T11:02:51.624Z,3.80
2019-05-03T11:03:51.960Z,1.10
2019-05-03T11:04:51.661Z,3.10
2019-05-03T11:05:51.584Z,0.60
2019-05-03T11:06:51.681Z,0.70
2019-05-03T11:07:51.555Z,0.50
2019-05-03T11:08:51.545Z,1.40
2019-05-03T11:09:52.484Z,0.40
2019-05-03T11:10:51.525Z,0.60
2019-05-03T11:11:51.522Z,0.30
2019-05-03T11:12:51.545Z,0.80
2019-05-03T11:13:51.490Z,1.60
2019-05-03T11:14:51.478Z,1.90
2019-05-03T11:15:51.466Z,1.20
2019-05-03T11:16:51.457Z,0.40
2019-05-03T11:17:51.445Z,0.70
2019-05-03T11:18:51.477Z,0.70
2019-05-03T11:19:51.421Z,0.50
2019-05-03T11:20:51.411Z,0.40
2019-05-03T11:21:51.399Z,0.40
2019-05-03T11:22:51.391Z,1.10
2019-05-03T11:23:51.378Z,1.20
2019-05-03T11:24:51.377Z,1.00
2019-05-03T11:25:51.355Z,0.70
2019-05-03T11:26:51.345Z,1.00
2019-05-03T11:27:51.332Z,0.50
2019-05-03T11:28:51.323Z,0.20
2019-05-03T11:29:51.355Z,0.90
2019-05-03T11:30:55.339Z,1.00
2019-05-03T11:33:04.038Z,0.70
2019-05-03T11:34:04.014Z,0.40
2019-05-03T11:35:04.587Z,0.30
2019-05-03T11:36:04.389Z,0.80
2019-05-03T11:37:04.958Z,0.50
2019-05-03T11:38:05.486Z,0.30
2019-05-03T11:39:04.957Z,0.70
2019-05-03T11:40:05.093Z,0.40
2019-05-03T11:41:04.855Z,0.40
2019-05-03T11:42:04.702Z,0.30
2019-05-03T11:43:04.655Z,0.30
2019-05-03T11:44:03.907Z,0.40
2019-05-03T11:45:03.894Z,0.40
2019-05-03T11:46:03.884Z,0.60
2019-05-03T11:47:05.813Z,0.40
2019-05-03T11:48:03.871Z,0.40
2019-05-03T11:49:05.635Z,0.40
2019-05-03T11:50:03.839Z,0.40
2019-05-03T11:51:03.828Z,0.30
2019-05-03T11:52:06.264Z,0.40
2019-05-03T11:53:05.173Z,0.30
2019-05-03T11:54:05.890Z,0.40
2019-05-03T11:55:10.458Z,0.40
2019-05-03T11:56:05.527Z,0.50
2019-05-03T11:57:05.079Z,0.50
2019-05-03T11:58:05.652Z,0.40
2019-05-03T11:59:05.282Z,0.40
2019-05-03T12:00:05.356Z,0.20
2019-05-03T12:01:13.146Z,0.40
2019-05-03T12:02:04.817Z,0.40
2019-05-03T12:03:10.698Z,0.30
2019-05-03T12:04:04.980Z,0.50
2019-05-03T12:05:04.990Z,0.30
2019-05-03T12:06:04.950Z,0.30
2019-05-03T12:07:05.806Z,0.30
2019-05-03T12:08:05.435Z,0.50
2019-05-03T12:09:05.565Z,0.40
2019-05-03T12:10:13.743Z,0.30
2019-05-03T12:11:05.810Z,0.70
2019-05-03T12:12:04.939Z,0.40
2019-05-03T12:13:05.040Z,0.40
2019-05-03T12:14:05.009Z,0.40
2019-05-03T12:15:04.332Z,0.40
2019-05-03T12:16:14.526Z,0.50
2019-05-03T12:17:19.536Z,0.30
2019-05-03T12:18:05.942Z,0.40
2019-05-03T12:19:16.553Z,0.30
2019-05-03T12:20:07.421Z,0.30
2019-05-03T12:21:06.613Z,0.40
2019-05-03T12:22:05.886Z,0.40
2019-05-03T12:23:06.127Z,0.30
2019-05-03T12:24:06.167Z,0.30
2019-05-03T12:25:09.643Z,0.40
2019-05-03T12:26:10.864Z,0.40
2019-05-03T12:27:04.766Z,0.40
2019-05-03T12:28:05.838Z,0.30
2019-05-03T12:29:04.612Z,0.40
2019-05-03T12:30:05.032Z,0.40
2019-05-03T12:31:04.852Z,0.30
2019-05-03T12:32:05.251Z,0.30
2019-05-03T12:33:05.691Z,0.30
2019-05-03T12:34:15.915Z,0.40
2019-05-03T12:35:05.953Z,0.40
2019-05-03T12:36:05.416Z,0.70
2019-05-03T12:37:05.140Z,0.40
2019-05-03T12:38:05.520Z,0.30
2019-05-03T12:39:05.548Z,0.40
2019-05-03T12:40:05.390Z,0.30
2019-05-03T12:41:05.358Z,0.40
2019-05-03T12:42:05.678Z,0.30
2019-05-03T12:43:05.781Z,0.30
2019-05-03T12:44:04.607Z,0.30
2019-05-03T12:45:04.568Z,0.30
2019-05-03T12:46:05.132Z,0.40
2019-05-03T12:47:05.719Z,0.30
2019-05-03T12:48:04.942Z,0.30
2019-05-03T12:49:05.256Z,0.30
2019-05-03T12:50:05.231Z,0.30
2019-05-03T12:51:05.924Z,0.50
2019-05-03T12:52:05.162Z,0.40
2019-05-03T12:53:04.839Z,0.30
2019-05-03T12:54:04.873Z,0.50
2019-05-03T12:55:04.563Z,0.40
2019-05-03T12:56:09.832Z,0.30
2019-05-03T12:57:05.013Z,0.50
2019-05-03T12:58:03.086Z,0.40
2019-05-03T12:59:05.576Z,0.40
2019-05-03T13:00:05.032Z,0.40
2019-05-03T13:01:04.943Z,0.40
2019-05-03T13:02:04.865Z,0.40
2019-05-03T13:03:04.562Z,0.30
2019-05-03T13:04:03.019Z,0.50
2019-05-03T13:05:15.392Z,0.50
2019-05-03T13:06:05.279Z,0.50
2019-05-03T13:07:02.988Z,0.30
2019-05-03T13:08:02.982Z,0.30
2019-05-03T13:09:02.986Z,0.50
2019-05-03T13:10:05.160Z,0.40
2019-05-03T13:11:05.059Z,0.50
2019-05-03T13:12:02.937Z,0.40
2019-05-03T13:13:02.925Z,0.30
2019-05-03T13:14:04.714Z,0.40
2019-05-03T13:15:04.905Z,0.30
2019-05-03T13:16:04.639Z,0.40
2019-05-03T13:17:04.706Z,0.40
2019-05-03T13:18:04.839Z,0.30
2019-05-03T13:19:02.857Z,0.40
2019-05-03T13:20:04.851Z,0.50